Time;durP1;ratioP1;P1;durP2;ratioP2;P2;SDS_P1;SDS_P2;PMS_P1;PMS_P2;Temp;Humidity;BMP_temperature;BMP_pressure;BME280_temperature;BME280_humidity;BME280_pressure;Samples;Min_cycle;Max_cycle;Signal;HPM_P1;HPM_P2
2022/08/21 00:00:21;;;;;;;2.95;2.65;;;;;;;13.62;87.50;101772.06;5014342;28;20054;-75
2022/08/21 00:02:52;;;;;;;;;;;;;;;13.62;86.66;101766.72;5032517;28;20383;-76
2022/08/21 00:05:19;;;;;;;2.78;2.60;;;;;;;13.57;87.38;101767.31;5031008;28;19929;-75
2022/08/21 00:07:46;;;;;;;8.15;2.63;;;;;;;13.54;87.38;101768.16;5030452;28;20050;-75
2022/08/21 00:10:13;;;;;;;3.83;2.40;;;;;;;13.47;87.33;101769.16;5031768;28;20041;-75
2022/08/21 00:12:41;;;;;;;2.67;2.58;;;;;;;13.46;87.42;101762.31;5031351;28;20100;-75
2022/08/21 00:15:13;;;;;;;4.25;2.28;;;;;;;13.43;87.12;101765.09;5031524;28;20046;-75
2022/08/21 00:17:40;;;;;;;3.00;2.67;;;;;;;13.38;87.63;101761.06;5031712;28;20121;-76
2022/08/21 00:20:09;;;;;;;5.22;2.55;;;;;;;13.37;87.83;101759.56;5030398;28;20104;-76
2022/08/21 00:22:36;;;;;;;2.83;2.47;;;;;;;13.32;88.00;101768.88;5031052;28;20077;-75
2022/08/21 00:25:05;;;;;;;2.80;2.60;;;;;;;13.33;88.30;101764.28;5030434;28;20108;-76
2022/08/21 00:27:32;;;;;;;2.67;2.47;;;;;;;13.35;87.92;101759.25;5030913;28;20050;-75
2022/08/21 00:29:59;;;;;;;5.80;3.00;;;;;;;13.32;87.91;101765.44;5030044;28;20120;-75
2022/08/21 00:32:27;;;;;;;7.63;3.00;;;;;;;13.30;88.21;101762.47;5031504;28;20042;-75
2022/08/21 00:34:54;;;;;;;2.70;2.50;;;;;;;13.28;88.05;101756.81;5031236;28;20523;-75
2022/08/21 00:37:21;;;;;;;4.70;3.00;;;;;;;13.26;88.43;101757.22;5030098;28;20046;-75
2022/08/21 00:39:48;;;;;;;3.45;2.95;;;;;;;13.28;88.36;101751.44;5013533;28;20079;-75
2022/08/21 00:42:17;;;;;;;3.50;2.80;;;;;;;13.27;88.77;101753.38;5029906;28;20058;-75
2022/08/21 00:44:46;;;;;;;3.00;2.72;;;;;;;13.27;88.10;101748.03;5032240;28;20046;-75
2022/08/21 00:47:13;;;;;;;2.85;2.58;;;;;;;13.25;88.58;101746.97;5034599;28;20050;-75
2022/08/21 00:49:40;;;;;;;3.05;2.85;;;;;;;13.23;88.13;101752.75;5033043;28;20050;-75
2022/08/21 00:52:12;;;;;;;3.25;2.70;;;;;;;13.21;88.23;101757.78;5034392;28;20085;-75
2022/08/21 00:54:39;;;;;;;2.70;2.50;;;;;;;13.21;88.28;101754.34;5034576;28;20577;-75
2022/08/21 00:57:15;;;;;;;3.08;2.70;;;;;;;13.20;88.39;101755.53;5034484;28;20080;-75
2022/08/21 00:59:45;;;;;;;4.00;3.00;;;;;;;13.13;88.99;101761.84;5033005;28;20525;-75
2022/08/21 01:02:12;;;;;;;2.67;2.47;;;;;;;13.11;88.60;101760.78;5032940;28;20119;-75
2022/08/21 01:04:39;;;;;;;3.25;2.40;;;;;;;13.07;88.23;101749.47;5032879;28;20113;-75
2022/08/21 01:07:06;;;;;;;3.53;2.63;;;;;;;13.06;88.14;101756.75;5032872;28;20054;-75
2022/08/21 01:09:32;;;;;;;4.30;2.80;;;;;;;13.03;88.00;101749.59;5034511;28;20485;-75
2022/08/21 01:11:59;;;;;;;3.05;2.72;;;;;;;12.95;88.64;101751.72;5033010;28;20041;-75
2022/08/21 01:14:26;;;;;;;3.45;2.83;;;;;;;12.88;89.03;101749.28;5033621;28;20511;-75
2022/08/21 01:16:55;;;;;;;5.03;2.97;;;;;;;12.87;88.98;101749.72;5033831;28;20045;-75
2022/08/21 01:19:23;;;;;;;3.28;2.80;;;;;;;12.83;88.74;101741.81;5034063;28;20038;-76
2022/08/21 01:21:51;;;;;;;3.05;2.78;;;;;;;12.81;88.81;101744.16;5033716;28;20080;-75
2022/08/21 01:24:18;;;;;;;4.45;2.88;;;;;;;12.77;88.42;101742.81;5033938;28;20097;-75
2022/08/21 01:26:44;;;;;;;3.60;2.83;;;;;;;12.75;89.39;101743.22;5033953;28;20049;-75
2022/08/21 01:29:28;;;;;;;3.25;2.45;;;;;;;12.76;88.92;101750.06;5034096;28;20045;-75
2022/08/21 01:31:55;;;;;;;2.97;2.78;;;;;;;12.77;88.65;101756.91;5033958;28;20124;-75
2022/08/21 01:34:21;;;;;;;4.70;3.42;;;;;;;12.74;89.05;101755.09;5015982;28;20511;-76
2022/08/21 01:36:48;;;;;;;3.88;3.30;;;;;;;12.76;89.41;101752.75;5032709;28;20575;-75
2022/08/21 01:39:15;;;;;;;5.20;3.25;;;;;;;12.76;89.24;101744.72;5032451;28;20058;-75
2022/08/21 01:41:42;;;;;;;4.97;3.00;;;;;;;12.76;89.94;101747.41;5033698;28;20045;-75
2022/08/21 01:44:09;;;;;;;6.60;3.30;;;;;;;12.72;89.19;101746.00;5033876;28;20046;-75
2022/08/21 01:46:35;;;;;;;4.65;3.30;;;;;;;12.71;89.79;101742.59;5033847;28;20046;-75
2022/08/21 01:49:03;;;;;;;3.40;3.10;;;;;;;12.71;89.40;101741.84;5033730;28;20558;-75
2022/08/21 01:51:30;;;;;;;4.43;3.03;;;;;;;12.63;89.58;101741.31;5033545;28;20533;-75
2022/08/21 01:53:56;;;;;;;3.70;3.10;;;;;;;12.60;90.02;101734.16;5032093;28;20045;-75
2022/08/21 01:56:25;;;;;;;3.50;2.95;;;;;;;12.63;89.84;101736.72;5032432;28;20050;-75
2022/08/21 01:58:52;;;;;;;5.35;3.10;;;;;;;12.64;90.49;101737.47;5033488;28;20046;-75
2022/08/21 02:01:18;;;;;;;4.00;3.17;;;;;;;12.62;90.29;101737.91;5032305;28;20046;-75
2022/08/21 02:03:45;;;;;;;6.47;2.75;;;;;;;12.62;90.17;101737.91;5032379;28;20507;-75
2022/08/21 02:06:14;;;;;;;3.47;3.17;;;;;;;12.61;90.34;101739.06;5031822;28;20068;-75
2022/08/21 02:08:41;;;;;;;6.30;3.63;;;;;;;12.61;90.19;101739.06;5033035;28;20235;-75
2022/08/21 02:11:08;;;;;;;3.10;2.90;;;;;;;12.59;90.35;101736.06;5033506;28;20327;-75
2022/08/21 02:13:34;;;;;;;3.40;3.20;;;;;;;12.57;90.98;101730.41;5015336;28;20115;-75
2022/08/21 02:16:01;;;;;;;6.00;3.00;;;;;;;12.56;90.73;101730.84;5033395;28;20045;-75
2022/08/21 02:18:27;;;;;;;3.35;3.15;;;;;;;12.52;91.00;101725.59;5033318;28;20538;-75
2022/08/21 02:20:54;;;;;;;3.95;3.15;;;;;;;12.49;91.34;101726.47;5033137;28;20049;-75
2022/08/21 02:23:23;;;;;;;3.80;3.35;;;;;;;12.48;90.99;101726.88;5032475;28;20058;-75
2022/08/21 02:25:54;;;;;;;5.17;3.17;;;;;;;12.47;90.49;101720.06;5033332;28;20050;-77
2022/08/21 02:28:21;;;;;;;3.80;3.28;;;;;;;12.43;89.70;101716.75;5031893;28;20258;-77
2022/08/21 02:30:49;;;;;;;4.13;3.00;;;;;;;12.38;89.50;101717.31;5032066;28;20056;-75
2022/08/21 02:33:16;;;;;;;3.28;2.88;;;;;;;12.39;90.08;101716.88;5033279;28;20061;-75
2022/08/21 02:35:44;;;;;;;7.75;2.90;;;;;;;12.40;90.23;101717.59;5031588;28;20392;-75
2022/08/21 02:38:14;;;;;;;4.10;3.25;;;;;;;12.37;90.42;101713.88;5014798;28;20089;-75
2022/08/21 02:40:44;;;;;;;3.10;2.80;;;;;;;12.37;90.38;101713.13;5031695;28;20041;-75
2022/08/21 02:43:18;;;;;;;3.63;2.60;;;;;;;12.35;90.71;101716.22;5031724;28;20058;-75
2022/08/21 02:45:45;;;;;;;3.50;3.20;;;;;;;12.34;90.73;101715.47;5032921;28;20050;-75
2022/08/21 02:48:16;;;;;;;3.38;3.17;;;;;;;12.34;91.03;101710.16;5032893;28;20045;-76
2022/08/21 02:50:46;;;;;;;3.30;3.00;;;;;;;12.34;91.05;101710.16;5031724;28;20549;-76
2022/08/21 02:53:16;;;;;;;3.28;3.00;;;;;;;12.33;90.90;101705.97;5030918;28;20046;-76
2022/08/21 02:55:45;;;;;;;3.25;3.05;;;;;;;12.32;91.17;101701.81;5031463;28;20097;-76
2022/08/21 02:58:12;;;;;;;3.25;3.05;;;;;;;12.28;90.99;101700.44;5032588;28;20041;-76
2022/08/21 03:00:39;;;;;;;3.47;2.95;;;;;;;12.27;90.84;101706.94;5031023;28;20559;-76
2022/08/21 03:03:06;;;;;;;3.40;3.15;;;;;;;12.26;90.77;101706.19;5032527;28;20050;-76
2022/08/21 03:05:34;;;;;;;3.97;3.15;;;;;;;12.24;91.00;101700.53;5030772;28;20498;-75
2022/08/21 03:08:04;;;;;;;4.60;3.33;;;;;;;12.24;90.81;101689.84;5031129;28;20049;-75
2022/08/21 03:10:33;;;;;;;3.97;3.25;;;;;;;12.24;90.24;101691.78;5032493;28;20042;-75
2022/08/21 03:13:00;;;;;;;4.00;3.13;;;;;;;12.24;90.86;101697.13;5032418;28;20089;-75
2022/08/21 03:15:26;;;;;;;3.38;3.08;;;;;;;12.22;90.62;101694.13;5032313;28;20049;-75
2022/08/21 03:17:54;;;;;;;3.60;3.30;;;;;;;12.19;90.76;101693.06;5032415;28;20585;-75
2022/08/21 03:20:23;;;;;;;3.33;3.03;;;;;;;12.18;91.20;101690.81;5031939;28;20076;-76
2022/08/21 03:22:51;;;;;;;5.70;3.60;;;;;;;12.18;91.64;101690.81;5030619;28;20050;-75
2022/08/21 03:25:20;;;;;;;4.00;3.15;;;;;;;12.18;91.50;101686.22;5014765;28;20046;-75
2022/08/21 03:28:11;;;;;;;5.20;3.63;;;;;;;12.17;91.19;101689.31;5030957;28;20134;-75
2022/08/21 03:30:46;;;;;;;4.57;3.85;;;;;;;12.15;91.63;101687.06;5030640;28;20053;-75
2022/08/21 03:33:14;;;;;;;7.95;4.53;;;;;;;12.15;92.26;101694.31;5032465;28;20049;-75
2022/08/21 03:35:46;;;;;;;4.90;3.90;;;;;;;12.13;92.53;101689.41;5031878;28;20077;-75
2022/08/21 03:38:13;;;;;;;5.78;4.10;;;;;;;12.10;92.73;101684.94;5031994;28;20054;-75
2022/08/21 03:40:41;;;;;;;5.63;3.92;;;;;;;12.07;92.35;101682.38;5031831;28;20057;-75
2022/08/21 03:43:09;;;;;;;5.82;4.18;;;;;;;12.07;92.62;101683.09;5031936;28;20509;-75
2022/08/21 03:45:36;;;;;;;6.53;4.03;;;;;;;12.08;92.44;101678.53;5030808;28;20100;-75
2022/08/21 03:48:04;;;;;;;3.67;3.38;;;;;;;12.08;91.69;101687.28;5032011;28;20049;-76
2022/08/21 03:50:33;;;;;;;3.35;3.05;;;;;;;12.04;91.79;101683.97;5030141;28;20205;-75
2022/08/21 03:53:06;;;;;;;3.00;2.80;;;;;;;11.96;91.44;101680.78;5030972;28;20048;-75
2022/08/21 03:55:32;;;;;;;3.88;2.90;;;;;;;11.96;91.60;101686.13;5031979;28;20046;-76
2022/08/21 03:57:59;;;;;;;3.50;3.20;;;;;;;11.95;91.09;101681.94;5013949;28;20088;-75
2022/08/21 04:00:42;;;;;;;3.00;2.80;;;;;;;11.88;91.58;101681.41;5031988;28;20050;-75
2022/08/21 04:03:09;;;;;;;3.28;3.08;;;;;;;11.82;91.69;101683.09;5031736;28;20540;-75
2022/08/21 04:05:36;;;;;;;3.30;3.00;;;;;;;11.81;91.71;101684.28;5029444;28;20046;-75
2022/08/21 04:08:05;;;;;;;3.17;2.83;;;;;;;11.83;91.46;101680.00;5031929;28;20049;-76
2022/08/21 04:10:34;;;;;;;3.65;2.95;;;;;;;11.85;91.81;101684.91;5030467;28;20042;-75
2022/08/21 04:13:02;;;;;;;3.70;3.40;;;;;;;11.86;92.06;101686.41;5030261;28;20050;-76
2022/08/21 04:15:28;;;;;;;3.47;3.17;;;;;;;11.85;92.02;101687.59;5030025;28;20116;-75
2022/08/21 04:17:55;;;;;;;4.60;3.38;;;;;;;11.85;92.20;101684.91;5031299;28;20077;-75
2022/08/21 04:20:22;;;;;;;5.00;3.95;;;;;;;11.83;92.00;101687.25;5032114;28;20053;-76
2022/08/21 04:22:50;;;;;;;3.63;3.28;;;;;;;11.84;92.11;101683.41;5033694;28;20050;-75
2022/08/21 04:25:19;;;;;;;3.75;3.45;;;;;;;11.81;92.10;101685.00;5034173;28;20050;-75
2022/08/21 04:27:46;;;;;;;3.63;3.33;;;;;;;11.82;92.55;101681.19;5035086;28;20096;-75
2022/08/21 04:30:14;;;;;;;3.95;3.65;;;;;;;11.82;92.92;101681.19;5034631;28;20046;-75
2022/08/21 04:32:48;;;;;;;4.80;3.33;;;;;;;11.82;92.84;101688.44;5034106;28;20050;-75
2022/08/21 04:35:18;;;;;;;4.00;3.70;;;;;;;11.82;92.82;101686.50;5033471;28;20046;-75
2022/08/21 04:37:45;;;;;;;4.43;3.53;;;;;;;11.83;92.57;101684.59;5033103;28;20487;-75
2022/08/21 04:40:14;;;;;;;3.95;3.65;;;;;;;11.82;92.46;101683.84;5034572;28;20085;-74
2022/08/21 04:42:44;;;;;;;4.60;3.60;;;;;;;11.83;92.73;101681.94;5033341;28;20058;-76
2022/08/21 04:45:24;;;;;;;4.40;3.47;;;;;;;11.79;92.47;101675.94;5033333;28;20572;-75
2022/08/21 04:47:53;;;;;;;4.25;3.75;;;;;;;11.77;92.06;101678.28;5034832;28;20093;-76
2022/08/21 04:50:24;;;;;;;3.47;3.20;;;;;;;11.75;92.27;101678.69;5034918;28;20049;-76
2022/08/21 04:53:05;;;;;;;4.40;3.78;;;;;;;11.77;92.37;101687.03;5034707;28;20053;-76
2022/08/21 04:55:32;;;;;;;3.90;3.60;;;;;;;11.77;92.51;101679.03;5034392;28;20045;-76
2022/08/21 04:57:59;;;;;;;7.97;4.03;;;;;;;11.79;92.38;101686.63;5034735;28;20045;-76
2022/08/21 05:00:26;;;;;;;3.97;3.63;;;;;;;11.77;92.28;101688.94;5034715;28;20037;-75
2022/08/21 05:02:56;;;;;;;4.03;3.58;;;;;;;11.79;92.41;101687.34;5033971;28;20058;-75
2022/08/21 05:05:24;;;;;;;4.20;3.83;;;;;;;11.81;92.31;101687.69;5032978;28;20069;-75
2022/08/21 05:07:52;;;;;;;3.90;3.60;;;;;;;11.83;92.65;101692.59;5033969;28;20109;-75
2022/08/21 05:10:19;;;;;;;4.90;4.10;;;;;;;11.87;92.68;101690.56;5033182;28;20075;-76
2022/08/21 05:12:46;;;;;;;4.95;4.45;;;;;;;11.91;92.63;101696.56;5033460;28;20104;-75
2022/08/21 05:15:12;;;;;;;6.82;4.68;;;;;;;11.94;93.71;101701.81;5016541;28;20776;-75
2022/08/21 05:17:41;;;;;;;5.78;5.15;;;;;;;12.00;93.98;101705.41;5033828;28;20046;-75
2022/08/21 05:20:09;;;;;;;6.18;4.60;;;;;;;12.10;93.70;101713.53;5034012;28;20050;-75
2022/08/21 05:22:36;;;;;;;6.65;4.95;;;;;;;12.17;93.51;101716.00;5033938;28;20050;-75
2022/08/21 05:25:04;;;;;;;7.65;5.13;;;;;;;12.25;93.85;101717.28;5034238;28;20049;-75
2022/08/21 05:27:37;;;;;;;6.93;5.25;;;;;;;12.33;94.12;101716.66;5034641;28;20073;-75
2022/08/21 05:30:07;;;;;;;6.55;5.28;;;;;;;12.68;94.45;101704.13;5032237;28;20050;-75
2022/08/21 05:32:33;;;;;;;7.25;5.95;;;;;;;14.60;88.63;101715.31;5032380;28;20511;-75
2022/08/21 05:35:00;;;;;;;6.75;5.68;;;;;;;15.68;81.34;101724.56;5033751;28;20054;-75
2022/08/21 05:37:26;;;;;;;9.40;5.78;;;;;;;15.08;82.66;101716.41;5032594;28;20057;-75
2022/08/21 05:39:53;;;;;;;8.35;5.40;;;;;;;16.17;80.31;101717.41;5033998;28;20042;-75
2022/08/21 05:42:39;;;;;;;8.48;5.78;;;;;;;18.42;71.18;101723.66;5033811;28;20053;-76
2022/08/21 05:45:06;;;;;;;6.40;5.80;;;;;;;19.75;66.05;101715.56;5033403;28;20096;-76
2022/08/21 05:47:33;;;;;;;8.80;5.72;;;;;;;20.76;61.57;101720.34;5033597;28;20466;-76
2022/08/21 05:49:59;;;;;;;7.40;5.45;;;;;;;21.47;59.01;101718.28;5033610;28;20565;-76
2022/08/21 05:52:26;;;;;;;8.98;5.43;;;;;;;21.97;57.24;101725.66;5033731;28;20050;-76
2022/08/21 05:54:53;;;;;;;10.40;5.68;;;;;;;22.45;55.68;101713.69;5032400;28;20054;-76
2022/08/21 05:57:21;;;;;;;7.63;5.35;;;;;;;22.69;55.40;101715.81;5033801;28;20045;-75
2022/08/21 05:59:48;;;;;;;7.47;5.97;;;;;;;22.96;54.02;101717.69;5033290;28;20459;-75
2022/08/21 06:02:17;;;;;;;10.73;5.25;;;;;;;23.06;54.34;101712.69;5033688;28;20046;-75
2022/08/21 06:04:44;;;;;;;8.77;5.68;;;;;;;23.05;53.46;101716.66;5031834;28;20482;-75
2022/08/21 06:07:10;;;;;;;6.78;5.55;;;;;;;22.94;54.13;101718.19;5031668;28;20054;-75
2022/08/21 06:09:37;;;;;;;9.07;5.53;;;;;;;23.00;54.56;101715.44;5033574;28;20050;-74
2022/08/21 06:12:08;;;;;;;10.80;6.03;;;;;;;23.15;54.67;101721.28;5033178;28;20523;-72
2022/08/21 06:14:35;;;;;;;11.68;5.93;;;;;;;22.72;55.47;101709.41;5032439;28;20050;-73
2022/08/21 06:17:07;;;;;;;8.50;5.40;;;;;;;22.46;56.43;101720.59;5033341;28;20092;-72
2022/08/21 06:19:34;;;;;;;8.43;5.18;;;;;;;22.37;57.62;101715.47;5033200;28;20045;-72
2022/08/21 06:22:01;;;;;;;8.90;4.82;;;;;;;22.25;58.37;101718.22;5033225;28;20048;-72
2022/08/21 06:24:28;;;;;;;11.63;5.07;;;;;;;21.79;59.65;101716.03;5032793;28;20041;-72
2022/08/21 06:26:55;;;;;;;12.15;5.30;;;;;;;21.34;61.16;101722.69;5032795;28;20071;-71
2022/08/21 06:29:22;;;;;;;11.45;5.35;;;;;;;21.01;63.06;101717.94;5032312;28;20045;-72
2022/08/21 06:31:51;;;;;;;11.40;5.70;;;;;;;20.60;64.39;101716.31;5032883;28;20534;-72
2022/08/21 06:34:18;;;;;;;9.43;4.72;;;;;;;20.19;66.71;101713.16;5031809;28;20046;-72
2022/08/21 06:36:44;;;;;;;10.90;5.30;;;;;;;19.93;67.45;101713.25;5031666;28;20563;-73
2022/08/21 06:39:11;;;;;;;12.07;4.68;;;;;;;19.65;69.63;101709.56;5032856;28;20042;-72
2022/08/21 06:41:51;;;;;;;10.73;5.28;;;;;;;19.60;70.55;101713.72;5032400;28;20073;-74
2022/08/21 06:44:23;;;;;;;12.38;4.80;;;;;;;19.46;70.82;101714.56;5030628;28;20053;-74
2022/08/21 06:46:49;;;;;;;10.80;5.15;;;;;;;19.48;71.07;101712.13;5032658;28;20112;-74
2022/08/21 06:49:16;;;;;;;10.30;4.78;;;;;;;19.34;71.67;101721.06;5032935;28;20108;-73
2022/08/21 06:51:47;;;;;;;12.02;5.10;;;;;;;19.20;72.05;101714.53;5032011;28;20511;-74
2022/08/21 06:54:13;;;;;;;12.48;5.18;;;;;;;19.19;72.63;101712.34;5032753;28;20057;-73
2022/08/21 06:56:40;;;;;;;10.95;5.10;;;;;;;19.15;73.43;101719.91;5032586;28;20517;-74
2022/08/21 06:59:06;;;;;;;10.10;5.25;;;;;;;19.26;73.92;101714.59;5031883;28;20046;-73
2022/08/21 07:01:33;;;;;;;10.43;5.18;;;;;;;19.37;73.30;101712.03;5030905;28;21060;-74
2022/08/21 07:03:59;;;;;;;16.52;5.47;;;;;;;19.36;73.80;101715.19;5032474;28;20418;-75
2022/08/21 07:06:26;;;;;;;8.57;5.07;;;;;;;19.39;73.71;101709.59;5031930;28;20511;-74
2022/08/21 07:08:54;;;;;;;7.93;4.35;;;;;;;19.39;73.54;101714.25;5031984;28;20050;-75
2022/08/21 07:11:25;;;;;;;9.05;4.50;;;;;;;19.39;74.23;101714.97;5032391;28;20046;-77
2022/08/21 07:13:53;;;;;;;11.52;4.65;;;;;;;19.34;73.67;101710.28;5031885;28;20042;-74
2022/08/21 07:16:20;;;;;;;7.13;4.75;;;;;;;19.22;74.77;101708.66;5032267;28;20033;-75
2022/08/21 07:18:47;;;;;;;8.40;4.65;;;;;;;19.44;74.49;101710.84;5032514;28;20049;-74
2022/08/21 07:21:15;;;;;;;8.48;5.05;;;;;;;19.53;74.78;101706.06;5014101;28;20057;-74
2022/08/21 07:23:46;;;;;;;12.15;4.78;;;;;;;19.67;73.72;101698.28;5031963;28;20476;-74
2022/08/21 07:26:15;;;;;;;9.40;4.95;;;;;;;19.82;73.54;101701.59;5029927;28;20038;-75
2022/08/21 07:28:41;;;;;;;8.15;4.35;;;;;;;19.88;73.70;101702.38;5030246;28;20065;-74
2022/08/21 07:31:09;;;;;;;7.88;4.30;;;;;;;20.02;73.39;101703.44;5032070;28;20375;-75
2022/08/21 07:33:36;;;;;;;8.88;4.43;;;;;;;20.14;72.46;101705.00;5031978;28;20077;-75
2022/08/21 07:36:03;;;;;;;13.02;4.22;;;;;;;20.22;72.39;101711.44;5030472;28;20149;-76
2022/08/21 07:38:29;;;;;;;14.18;4.30;;;;;;;20.32;72.36;101715.44;5031753;28;20052;-75
2022/08/21 07:40:59;;;;;;;8.15;4.15;;;;;;;20.48;71.51;101705.94;5031819;28;20046;-74
2022/08/21 07:43:25;;;;;;;10.50;4.50;;;;;;;20.50;70.68;101704.22;5029923;28;20042;-74
2022/08/21 07:45:53;;;;;;;15.48;4.63;;;;;;;20.52;71.01;101704.47;5031759;28;20096;-74
2022/08/21 07:48:23;;;;;;;10.77;3.90;;;;;;;20.62;71.23;101710.44;5030400;28;20522;-75
2022/08/21 07:50:50;;;;;;;11.07;3.92;;;;;;;20.68;70.90;101705.78;5030478;28;20097;-74
2022/08/21 07:53:17;;;;;;;12.30;4.28;;;;;;;20.73;70.17;101710.47;5032136;28;20046;-74
2022/08/21 07:55:44;;;;;;;10.63;3.90;;;;;;;20.79;70.73;101713.22;5033540;28;20097;-75
2022/08/21 07:58:10;;;;;;;7.53;4.00;;;;;;;20.78;70.47;101717.88;5035301;28;20049;-76
2022/08/21 08:00:37;;;;;;;12.48;4.28;;;;;;;20.87;70.57;101714.94;5035172;28;20097;-76
2022/08/21 08:03:04;;;;;;;12.07;4.03;;;;;;;21.02;70.10;101722.13;5034891;28;20042;-74
2022/08/21 08:05:31;;;;;;;11.27;4.15;;;;;;;20.94;70.49;101722.59;5033983;28;20045;-75
2022/08/21 08:07:58;;;;;;;12.73;3.53;;;;;;;21.08;70.80;101718.19;5034877;28;20527;-74
2022/08/21 08:10:26;;;;;;;10.60;3.83;;;;;;;21.15;69.68;101706.16;5034482;28;20054;-74
2022/08/21 08:12:54;;;;;;;9.77;4.07;;;;;;;21.19;69.02;101707.38;5034961;28;20541;-74
2022/08/21 08:15:24;;;;;;;9.90;4.13;;;;;;;21.37;68.99;101703.50;5033612;28;20482;-73
2022/08/21 08:17:51;;;;;;;11.57;3.97;;;;;;;21.50;68.55;101701.03;5032020;28;20050;-74
2022/08/21 08:20:19;;;;;;;11.13;3.78;;;;;;;21.59;68.48;101702.78;5035107;28;20518;-74
2022/08/21 08:22:46;;;;;;;6.15;3.35;;;;;;;21.82;68.07;101701.50;5034951;28;20046;-74
2022/08/21 08:25:26;;;;;;;8.40;3.75;;;;;;;21.91;67.15;101703.22;5034284;28;20046;-74
2022/08/21 08:27:52;;;;;;;12.18;3.95;;;;;;;21.88;66.17;101704.22;5034183;28;20046;-74
2022/08/21 08:30:21;;;;;;;8.95;3.70;;;;;;;22.00;66.66;101707.63;5033148;28;20046;-74
2022/08/21 08:32:49;;;;;;;8.00;3.63;;;;;;;22.27;66.82;101699.47;5034715;28;20046;-75
2022/08/21 08:35:16;;;;;;;10.45;5.10;;;;;;;22.43;65.95;101700.63;5033665;28;20510;-75
2022/08/21 08:37:45;;;;;;;7.75;4.13;;;;;;;22.49;65.81;101706.03;5034410;28;20109;-74
2022/08/21 08:40:29;;;;;;;14.45;4.20;;;;;;;22.73;65.05;101703.47;5033050;28;20138;-77
2022/08/21 08:42:55;;;;;;;11.35;3.70;;;;;;;22.73;64.96;101714.31;5034495;28;20108;-74
2022/08/21 08:45:26;;;;;;;10.48;4.00;;;;;;;22.97;64.36;101712.97;5034378;28;20041;-73
2022/08/21 08:47:58;;;;;;;8.13;3.33;;;;;;;22.98;64.09;101709.03;5034318;28;20045;-73
2022/08/21 08:50:41;;;;;;;11.25;3.67;;;;;;;22.98;64.20;101711.75;5034320;28;20049;-73
2022/08/21 08:53:15;;;;;;;11.20;3.83;;;;;;;22.86;63.89;101708.34;5034250;28;20100;-75
2022/08/21 08:55:44;;;;;;;10.63;3.30;;;;;;;22.49;64.08;101708.75;5033970;28;20057;-73
2022/08/21 08:58:24;;;;;;;9.30;3.20;;;;;;;22.42;64.99;101695.69;5034222;28;20041;-74
2022/08/21 09:00:53;;;;;;;7.35;3.50;;;;;;;22.49;64.90;101703.31;5034408;28;20045;-73
2022/08/21 09:03:23;;;;;;;6.32;2.95;;;;;;;22.78;63.04;101701.97;5033992;28;20081;-73
2022/08/21 09:06:06;;;;;;;11.32;3.10;;;;;;;22.71;63.59;101703.22;5031851;28;20060;-74
2022/08/21 09:08:44;;;;;;;7.63;3.25;;;;;;;22.50;64.53;101699.38;5033427;28;20049;-74
2022/08/21 09:11:21;;;;;;;10.85;3.40;;;;;;;22.68;64.13;101695.34;5034186;28;20089;-76
2022/08/21 09:14:05;;;;;;;8.82;2.97;;;;;;;22.83;63.94;101687.63;5033979;28;20049;-75
2022/08/21 09:16:44;;;;;;;8.15;3.42;;;;;;;23.22;61.67;101701.69;5033081;28;20046;-73
2022/08/21 09:19:37;;;;;;;39.10;25.83;;;;;;;23.58;62.55;101691.56;5032784;28;20046;-74
2022/08/21 09:22:34;;;;;;;7.88;4.32;;;;;;;23.79;61.49;101689.16;5032300;28;20100;-74
2022/08/21 09:25:23;;;;;;;8.68;3.40;;;;;;;23.88;61.14;101688.06;5033480;28;20046;-73
2022/08/21 09:27:50;;;;;;;7.10;3.00;;;;;;;23.96;59.60;101688.25;5033738;28;20518;-73
2022/08/21 09:30:19;;;;;;;7.22;2.92;;;;;;;23.96;60.11;101688.25;5033960;28;20038;-73
2022/08/21 09:32:45;;;;;;;10.15;3.45;;;;;;;24.19;59.97;101684.03;5033659;28;20156;-73
2022/08/21 09:35:17;;;;;;;8.48;3.90;;;;;;;24.56;58.28;101692.25;5032123;28;20049;-73
2022/08/21 09:37:55;;;;;;;;;;;;;;;24.66;60.85;101695.34;5033594;28;20042;-73
2022/08/21 09:40:31;;;;;;;7.35;2.75;;;;;;;24.63;57.62;101693.66;5033817;28;20011;-73
2022/08/21 09:43:20;;;;;;;6.45;2.55;;;;;;;24.29;58.76;101698.78;5033046;28;20046;-74
2022/08/21 09:46:00;;;;;;;8.63;2.80;;;;;;;24.18;59.05;101704.31;5033462;28;20149;-73
2022/08/21 09:48:26;;;;;;;9.15;2.75;;;;;;;24.03;57.67;101710.16;5033662;28;20049;-74
2022/08/21 09:51:08;;;;;;;7.57;2.80;;;;;;;24.22;56.46;101712.94;5033356;28;20572;-73
2022/08/21 09:53:42;;;;;;;8.40;2.97;;;;;;;23.87;56.65;101706.38;5032610;28;20054;-73
2022/08/21 09:59:19;;;;;;;6.00;2.67;;;;;;;23.71;59.98;101698.38;5033120;28;20100;-74
2022/08/21 10:01:50;;;;;;;6.40;2.95;;;;;;;23.39;59.66;101692.69;5033013;28;20065;-73
2022/08/21 10:04:21;;;;;;;7.35;2.50;;;;;;;23.27;59.34;101692.03;5033440;28;20053;-76
2022/08/21 10:06:48;;;;;;;7.80;2.88;;;;;;;23.05;60.37;101692.19;5031430;28;20060;-74
2022/08/21 10:09:18;;;;;;;8.65;2.92;;;;;;;22.89;59.74;101691.06;5033202;28;20046;-77
2022/08/21 10:11:54;;;;;;;7.80;2.88;;;;;;;22.88;59.67;101684.16;5032287;28;20565;-73
2022/08/21 10:14:48;;;;;;;6.72;2.53;;;;;;;23.16;60.81;101686.69;5033020;28;20561;-74
2022/08/21 10:17:26;;;;;;;8.05;2.50;;;;;;;23.47;57.96;101686.22;5030841;28;20051;-74
2022/08/21 10:20:06;;;;;;;7.65;2.75;;;;;;;23.22;59.71;101692.81;5032912;28;20113;-75
2022/08/21 10:23:00;;;;;;;7.57;2.50;;;;;;;23.15;60.45;101693.38;5032335;28;20069;-76
2022/08/21 10:25:57;;;;;;;10.73;2.80;;;;;;;23.70;60.86;101677.88;5047181;28;20166;-76
2022/08/21 10:28:44;;;;;;;;;;;;;;;24.36;59.65;101684.59;5033332;28;20427;-74
2022/08/21 10:31:24;;;;;;;7.30;2.85;;;;;;;24.51;56.72;101682.16;5033171;28;20413;-75
2022/08/21 10:34:18;;;;;;;5.35;2.58;;;;;;;24.78;55.34;101677.63;5033143;28;20057;-74
2022/08/21 10:37:22;;;;;;;5.82;2.08;;;;;;;25.12;55.51;101675.16;5032272;28;20049;-73
2022/08/21 10:40:07;;;;;;;7.97;2.60;;;;;;;25.33;53.92;101669.13;5032611;28;20581;-74
2022/08/21 10:42:43;;;;;;;8.68;3.53;;;;;;;25.39;52.39;101669.75;5032836;28;20565;-76
2022/08/21 10:45:32;;;;;;;5.75;2.33;;;;;;;25.51;52.83;101674.50;5030763;28;20116;-73
2022/08/21 10:48:19;;;;;;;6.78;2.80;;;;;;;25.58;53.41;101667.69;5032522;28;20085;-73
2022/08/21 10:50:59;;;;;;;7.72;2.80;;;;;;;25.38;52.38;101666.28;5032329;28;20543;-73
2022/08/21 10:53:45;;;;;;;4.80;2.40;;;;;;;25.13;52.90;101665.00;5032207;28;20042;-76
2022/08/21 10:56:19;;;;;;;8.10;2.88;;;;;;;25.38;53.53;101665.56;5032338;28;20116;-77
2022/08/21 10:59:01;;;;;;;8.70;2.47;;;;;;;25.58;51.86;101660.25;5032612;28;20529;-75
2022/08/21 11:01:46;;;;;;;6.60;2.22;;;;;;;25.58;51.29;101649.34;5032052;28;20050;-75
2022/08/21 11:04:23;;;;;;;6.78;2.42;;;;;;;25.95;48.93;101655.16;5030384;28;20046;-75
2022/08/21 11:07:15;;;;;;;7.38;2.53;;;;;;;26.22;50.21;101657.31;5030095;28;20057;-75
2022/08/21 11:09:47;;;;;;;7.10;2.30;;;;;;;26.31;48.55;101652.72;5032246;28;20085;-75
2022/08/21 11:12:26;;;;;;;6.20;2.30;;;;;;;26.43;49.20;101662.13;5031293;28;20041;-75
2022/08/21 11:15:02;;;;;;;4.93;2.42;;;;;;;26.60;48.26;101661.75;5032025;28;20046;-76
2022/08/21 11:17:43;;;;;;;5.57;2.40;;;;;;;26.20;47.94;101653.66;5031792;28;20050;-75
2022/08/21 11:20:12;;;;;;;;;;;;;;;25.73;50.44;101653.56;5031604;28;20073;-75
2022/08/21 11:22:50;;;;;;;5.45;2.20;;;;;;;25.51;49.01;101652.69;5030515;28;19925;-75
2022/08/21 11:25:27;;;;;;;4.72;1.92;;;;;;;25.81;49.77;101648.97;5031721;28;20582;-75
2022/08/21 11:28:09;;;;;;;4.07;2.30;;;;;;;26.09;49.29;101651.13;5030512;28;20120;-75
2022/08/21 11:31:16;;;;;;;6.95;2.22;;;;;;;26.35;49.10;101647.66;5031741;28;20489;-74
2022/08/21 11:34:18;;;;;;;7.93;2.50;;;;;;;26.39;48.34;101646.06;5031530;28;20042;-76
2022/08/21 11:37:16;;;;;;;7.15;2.53;;;;;;;26.29;48.18;101652.47;5012592;28;20474;-76
2022/08/21 11:40:09;;;;;;;4.88;2.00;;;;;;;26.27;49.77;101652.28;5013621;28;20053;-76
2022/08/21 11:43:13;;;;;;;7.28;2.20;;;;;;;26.10;47.80;101645.16;5031893;28;20117;-76
2022/08/21 11:46:11;;;;;;;3.53;2.10;;;;;;;26.14;48.38;101650.28;5030344;28;20042;-74